Time;durP1;ratioP1;P1;durP2;ratioP2;P2;SDS_P1;SDS_P2;PMS_P1;PMS_P2;Temp;Humidity;BMP_temperature;BMP_pressure;BME280_temperature;BME280_humidity;BME280_pressure;Samples;Min_cycle;Max_cycle;Signal;HPM_P1;HPM_P2
2023/09/09 00:01:48;;;;;;;8.25;7.40;;;;;;;;;;5049004;28;20532;-60
2023/09/09 00:04:14;;;;;;;10.60;7.47;;;;;;;;;;5014429;28;20029;-60
2023/09/09 00:06:40;;;;;;;8.13;7.18;;;;;;;;;;5032509;28;20104;-60
2023/09/09 00:09:05;;;;;;;10.38;7.30;;;;;;;;;;5032305;28;20037;-60
2023/09/09 00:11:31;;;;;;;7.72;6.93;;;;;;;;;;5014394;28;20025;-60
2023/09/09 00:13:57;;;;;;;7.55;6.82;;;;;;;;;;5031754;28;20029;-60
2023/09/09 00:16:22;;;;;;;7.78;6.60;;;;;;;;;;5031841;28;20729;-60
2023/09/09 00:18:47;;;;;;;8.70;6.90;;;;;;;;;;5013379;28;20037;-61
2023/09/09 00:21:14;;;;;;;7.97;7.18;;;;;;;;;;5030896;28;20033;-68
2023/09/09 00:23:39;;;;;;;7.93;7.13;;;;;;;;;;5030939;28;20022;-68
2023/09/09 00:26:05;;;;;;;8.15;7.10;;;;;;;;;;5031576;28;20483;-68
2023/09/09 00:28:30;;;;;;;8.98;7.15;;;;;;;;;;5031544;28;20091;-69
2023/09/09 00:30:55;;;;;;;8.35;7.40;;;;;;;;;;5031383;28;20482;-62
2023/09/09 00:33:21;;;;;;;7.30;6.60;;;;;;;;;;5031541;28;20071;-62
2023/09/09 00:35:46;;;;;;;8.05;6.68;;;;;;;;;;5031399;28;20025;-60
2023/09/09 00:38:12;;;;;;;7.80;6.93;;;;;;;;;;5013553;28;20029;-67
2023/09/09 00:40:43;;;;;;;7.57;6.80;;;;;;;;;;5030943;28;20060;-67
2023/09/09 00:43:08;;;;;;;9.73;7.25;;;;;;;;;;5013735;28;20091;-70
2023/09/09 00:45:34;;;;;;;7.03;6.43;;;;;;;;;;5031142;28;20041;-69
2023/09/09 00:47:59;;;;;;;6.60;5.97;;;;;;;;;;5031322;28;20037;-70
2023/09/09 00:50:25;;;;;;;7.30;6.57;;;;;;;;;;5031189;28;20033;-62
2023/09/09 00:52:51;;;;;;;7.05;6.38;;;;;;;;;;5013624;28;20041;-62
2023/09/09 00:55:17;;;;;;;7.80;7.10;;;;;;;;;;5012709;28;20064;-62
2023/09/09 00:57:43;;;;;;;7.30;6.60;;;;;;;;;;5030858;28;20049;-61
2023/09/09 01:00:11;;;;;;;9.05;7.10;;;;;;;;;;5030954;28;20041;-62
2023/09/09 01:02:37;;;;;;;8.20;7.40;;;;;;;;;;5030934;28;20030;-61
2023/09/09 01:05:04;;;;;;;7.25;6.65;;;;;;;;;;5013311;28;20045;-61
2023/09/09 01:07:40;;;;;;;7.03;6.32;;;;;;;;;;5012821;28;20029;-62
2023/09/09 01:10:07;;;;;;;6.70;6.10;;;;;;;;;;5031541;28;20084;-61
2023/09/09 01:12:32;;;;;;;7.82;6.80;;;;;;;;;;5031511;28;20037;-61
2023/09/09 01:14:58;;;;;;;7.68;6.82;;;;;;;;;;5012650;28;20025;-60
2023/09/09 01:17:24;;;;;;;7.40;6.38;;;;;;;;;;5031208;28;20030;-60
2023/09/09 01:19:49;;;;;;;17.90;7.28;;;;;;;;;;5030930;28;20041;-69
2023/09/09 01:22:18;;;;;;;11.02;6.45;;;;;;;;;;5011904;28;20034;-69
2023/09/09 01:24:45;;;;;;;8.20;6.38;;;;;;;;;;5012724;28;20038;-69
2023/09/09 01:27:10;;;;;;;7.75;6.28;;;;;;;;;;5012689;28;20056;-69
2023/09/09 01:29:35;;;;;;;6.82;6.05;;;;;;;;;;5012461;28;20033;-69
2023/09/09 01:32:01;;;;;;;7.40;6.10;;;;;;;;;;5012619;28;20116;-62
2023/09/09 01:34:26;;;;;;;7.40;6.63;;;;;;;;;;5013163;28;20432;-68
2023/09/09 01:36:51;;;;;;;7.47;6.28;;;;;;;;;;5012842;28;20486;-68
2023/09/09 01:39:17;;;;;;;6.95;6.25;;;;;;;;;;5012475;28;20477;-68
2023/09/09 01:41:42;;;;;;;7.05;5.78;;;;;;;;;;5030399;28;20511;-68
2023/09/09 01:44:08;;;;;;;6.10;5.57;;;;;;;;;;4996108;28;20504;-69
2023/09/09 01:46:33;;;;;;;6.63;6.03;;;;;;;;;;5012541;28;20087;-70
2023/09/09 01:49:03;;;;;;;8.95;5.97;;;;;;;;;;5030689;28;20025;-71
2023/09/09 01:51:32;;;;;;;6.40;5.57;;;;;;;;;;5013291;28;20072;-71
2023/09/09 01:53:57;;;;;;;6.97;5.90;;;;;;;;;;5030528;28;20370;-71
2023/09/09 01:56:23;;;;;;;6.57;5.90;;;;;;;;;;5012831;28;20028;-71
2023/09/09 01:58:48;;;;;;;9.15;6.10;;;;;;;;;;5012680;28;20092;-69
2023/09/09 02:01:14;;;;;;;6.55;5.70;;;;;;;;;;4997121;28;20099;-68
2023/09/09 02:03:40;;;;;;;6.20;5.60;;;;;;;;;;5013152;28;20040;-67
2023/09/09 02:06:05;;;;;;;7.90;5.72;;;;;;;;;;5030437;28;20053;-67
2023/09/09 02:08:31;;;;;;;6.80;5.80;;;;;;;;;;5030232;28;20044;-68
2023/09/09 02:10:59;;;;;;;6.25;5.65;;;;;;;;;;4996518;28;20044;-62
2023/09/09 02:13:25;;;;;;;6.95;6.25;;;;;;;;;;5012831;28;20077;-60
2023/09/09 02:15:50;;;;;;;6.45;5.90;;;;;;;;;;5012083;28;20051;-60
2023/09/09 02:18:16;;;;;;;6.68;5.82;;;;;;;;;;4998000;28;20033;-61
2023/09/09 02:20:41;;;;;;;7.45;6.20;;;;;;;;;;5016331;28;20040;-61
2023/09/09 02:23:07;;;;;;;7.07;6.47;;;;;;;;;;5015737;28;20112;-61
2023/09/09 02:25:32;;;;;;;7.50;6.80;;;;;;;;;;5033950;28;20124;-61
2023/09/09 02:27:58;;;;;;;7.07;6.30;;;;;;;;;;5015449;28;20025;-69
2023/09/09 02:30:23;;;;;;;6.93;6.10;;;;;;;;;;5032989;28;20021;-67
2023/09/09 02:32:49;;;;;;;7.40;6.25;;;;;;;;;;5015242;28;20092;-69
2023/09/09 02:35:14;;;;;;;7.10;6.25;;;;;;;;;;5016110;28;20025;-69
2023/09/09 02:37:40;;;;;;;7.15;6.45;;;;;;;;;;5033522;28;20048;-69
2023/09/09 02:40:06;;;;;;;6.60;5.43;;;;;;;;;;5015703;28;20038;-63
2023/09/09 02:42:31;;;;;;;6.75;5.85;;;;;;;;;;5016099;28;20033;-62
2023/09/09 02:44:57;;;;;;;8.00;6.22;;;;;;;;;;5033905;28;20433;-60
2023/09/09 02:47:22;;;;;;;6.53;5.82;;;;;;;;;;5016030;28;20120;-60
2023/09/09 02:49:49;;;;;;;6.32;5.72;;;;;;;;;;5033232;28;20472;-62
2023/09/09 02:52:15;;;;;;;7.13;5.97;;;;;;;;;;4999171;28;20152;-62
2023/09/09 02:54:41;;;;;;;10.18;6.05;;;;;;;;;;5016628;28;20437;-62
2023/09/09 02:57:06;;;;;;;7.35;6.65;;;;;;;;;;5013581;28;20021;-62
2023/09/09 02:59:33;;;;;;;6.43;5.82;;;;;;;;;;5016667;28;20083;-69
2023/09/09 03:02:00;;;;;;;6.90;5.90;;;;;;;;;;5015465;28;20025;-68
2023/09/09 03:04:25;;;;;;;8.13;6.32;;;;;;;;;;4998714;28;20095;-68
2023/09/09 03:06:52;;;;;;;8.73;6.65;;;;;;;;;;5016460;28;20466;-69
2023/09/09 03:09:17;;;;;;;6.90;6.25;;;;;;;;;;5001404;28;20068;-61
2023/09/09 03:11:43;;;;;;;7.57;6.82;;;;;;;;;;5017261;28;20061;-61
2023/09/09 03:14:09;;;;;;;6.97;6.07;;;;;;;;;;5017366;28;20021;-62
2023/09/09 03:16:35;;;;;;;8.02;6.90;;;;;;;;;;5017095;28;20030;-61
2023/09/09 03:19:01;;;;;;;7.53;6.30;;;;;;;;;;5017230;28;20056;-61
2023/09/09 03:21:28;;;;;;;7.38;6.28;;;;;;;;;;5017097;28;20025;-61
2023/09/09 03:23:54;;;;;;;7.18;6.43;;;;;;;;;;5034637;28;20083;-61
2023/09/09 03:26:19;;;;;;;6.22;5.63;;;;;;;;;;5016464;28;20029;-71
2023/09/09 03:28:45;;;;;;;6.00;5.50;;;;;;;;;;5032395;28;20018;-70
2023/09/09 03:31:11;;;;;;;6.25;5.75;;;;;;;;;;5014577;28;20049;-71
2023/09/09 03:33:36;;;;;;;6.68;5.53;;;;;;;;;;5015201;28;20480;-70
2023/09/09 03:36:02;;;;;;;6.63;6.03;;;;;;;;;;5014825;28;20095;-63
2023/09/09 03:38:27;;;;;;;6.50;5.78;;;;;;;;;;5032819;28;20029;-70
2023/09/09 03:40:53;;;;;;;6.10;5.55;;;;;;;;;;5014700;28;20038;-64
2023/09/09 03:43:18;;;;;;;6.68;5.97;;;;;;;;;;5014653;28;20053;-62
2023/09/09 03:45:45;;;;;;;6.45;5.78;;;;;;;;;;5014720;28;20033;-61
2023/09/09 03:48:10;;;;;;;6.78;5.72;;;;;;;;;;5032680;28;20037;-61
2023/09/09 03:50:36;;;;;;;6.00;5.50;;;;;;;;;;5014725;28;20037;-66
2023/09/09 03:53:02;;;;;;;6.43;5.82;;;;;;;;;;5015170;28;20064;-66
2023/09/09 03:55:28;;;;;;;5.90;5.35;;;;;;;;;;5014675;28;20112;-63
2023/09/09 03:57:54;;;;;;;5.93;5.32;;;;;;;;;;5014284;28;20045;-72
2023/09/09 04:00:19;;;;;;;5.53;5.13;;;;;;;;;;5032328;28;20025;-72
2023/09/09 04:02:46;;;;;;;7.38;5.63;;;;;;;;;;5014645;28;20033;-62
2023/09/09 04:05:13;;;;;;;6.50;5.57;;;;;;;;;;5014497;28;20374;-62
2023/09/09 04:07:43;;;;;;;6.47;5.88;;;;;;;;;;5013458;28;20079;-64
2023/09/09 04:10:09;;;;;;;5.93;5.43;;;;;;;;;;5013968;28;20075;-71
2023/09/09 04:12:34;;;;;;;7.10;6.00;;;;;;;;;;5014197;28;20033;-71
2023/09/09 04:15:00;;;;;;;6.53;5.63;;;;;;;;;;5031935;28;20485;-69
2023/09/09 04:17:25;;;;;;;5.78;5.20;;;;;;;;;;5013608;28;20115;-61
2023/09/09 04:19:51;;;;;;;8.23;6.10;;;;;;;;;;5031907;28;20021;-62
2023/09/09 04:22:17;;;;;;;8.57;5.75;;;;;;;;;;4997477;28;20033;-68
2023/09/09 04:24:42;;;;;;;6.40;5.80;;;;;;;;;;5031689;28;20140;-68
2023/09/09 04:27:09;;;;;;;7.88;5.22;;;;;;;;;;5031322;28;20149;-63
2023/09/09 04:29:35;;;;;;;8.35;5.40;;;;;;;;;;5012140;28;20021;-63
2023/09/09 04:32:00;;;;;;;6.63;5.15;;;;;;;;;;5031205;28;20036;-63
2023/09/09 04:34:26;;;;;;;5.75;5.22;;;;;;;;;;5013012;28;20021;-69
2023/09/09 04:36:51;;;;;;;5.43;4.80;;;;;;;;;;5030762;28;20096;-69
2023/09/09 04:39:17;;;;;;;6.13;5.30;;;;;;;;;;5013077;28;20021;-69
2023/09/09 04:41:44;;;;;;;5.72;5.22;;;;;;;;;;5012074;28;20484;-69
2023/09/09 04:44:10;;;;;;;5.88;5.03;;;;;;;;;;5012582;28;20515;-68
2023/09/09 04:46:37;;;;;;;5.55;5.05;;;;;;;;;;5012948;28;20033;-68
2023/09/09 04:49:03;;;;;;;5.90;5.30;;;;;;;;;;5012809;28;20048;-69
2023/09/09 04:51:29;;;;;;;6.13;5.28;;;;;;;;;;5012902;28;20166;-69
2023/09/09 04:53:56;;;;;;;6.10;5.50;;;;;;;;;;5012715;28;20026;-68
2023/09/09 04:56:21;;;;;;;5.97;5.40;;;;;;;;;;4996582;28;20794;-68
2023/09/09 04:58:47;;;;;;;6.93;6.22;;;;;;;;;;5011112;28;20527;-68
2023/09/09 05:01:12;;;;;;;7.70;5.65;;;;;;;;;;5010124;28;20037;-68
2023/09/09 05:03:38;;;;;;;9.80;5.95;;;;;;;;;;5010980;28;20033;-68
2023/09/09 05:06:03;;;;;;;6.03;5.20;;;;;;;;;;5028108;28;20378;-69
2023/09/09 05:08:29;;;;;;;6.65;5.93;;;;;;;;;;5010827;28;20393;-69
2023/09/09 05:10:54;;;;;;;6.72;5.45;;;;;;;;;;5011358;28;20171;-68
2023/09/09 05:13:20;;;;;;;6.75;6.05;;;;;;;;;;5012168;28;20040;-69
2023/09/09 05:15:46;;;;;;;6.35;5.63;;;;;;;;;;5030358;28;20033;-68
2023/09/09 05:18:12;;;;;;;8.05;5.80;;;;;;;;;;4996038;28;20033;-69
2023/09/09 05:20:37;;;;;;;6.07;5.47;;;;;;;;;;5011923;28;20056;-69
2023/09/09 05:23:03;;;;;;;8.98;5.68;;;;;;;;;;5012438;28;20033;-68
2023/09/09 05:25:28;;;;;;;7.32;5.90;;;;;;;;;;5011288;28;20035;-67
2023/09/09 05:27:54;;;;;;;6.55;5.75;;;;;;;;;;5029427;28;20477;-65
2023/09/09 05:30:20;;;;;;;6.25;5.43;;;;;;;;;;5010983;28;20037;-65
2023/09/09 05:32:45;;;;;;;6.22;5.63;;;;;;;;;;5029431;28;20025;-69
2023/09/09 05:35:11;;;;;;;5.90;5.32;;;;;;;;;;5029512;28;20037;-66
2023/09/09 05:37:37;;;;;;;6.00;5.40;;;;;;;;;;5011369;28;20103;-66
2023/09/09 05:40:02;;;;;;;6.25;5.68;;;;;;;;;;5011807;28;20067;-66
2023/09/09 05:42:28;;;;;;;6.70;6.05;;;;;;;;;;5012091;28;20112;-66
2023/09/09 05:44:54;;;;;;;6.18;5.57;;;;;;;;;;5004872;28;20022;-66
2023/09/09 05:47:20;;;;;;;5.85;5.22;;;;;;;;;;5009808;28;20041;-66
2023/09/09 05:49:45;;;;;;;7.53;5.97;;;;;;;;;;4992076;28;20030;-66
2023/09/09 05:52:12;;;;;;;7.88;5.78;;;;;;;;;;4996112;28;20029;-60
2023/09/09 05:54:38;;;;;;;7.40;6.20;;;;;;;;;;5022974;28;20049;-60
2023/09/09 05:57:05;;;;;;;6.60;5.88;;;;;;;;;;4980582;28;20024;-60
2023/09/09 05:59:31;;;;;;;7.03;6.00;;;;;;;;;;4996762;28;20117;-60
2023/09/09 06:01:57;;;;;;;6.65;6.05;;;;;;;;;;5012748;28;20037;-60
2023/09/09 06:04:22;;;;;;;7.38;5.88;;;;;;;;;;5016716;28;20393;-61
2023/09/09 06:06:48;;;;;;;8.40;6.00;;;;;;;;;;5016591;28;20029;-66
2023/09/09 06:09:13;;;;;;;8.73;5.78;;;;;;;;;;5034564;28;20038;-67
2023/09/09 06:11:39;;;;;;;6.43;5.80;;;;;;;;;;5016286;28;20033;-67
2023/09/09 06:14:04;;;;;;;6.78;6.15;;;;;;;;;;5016576;28;20053;-67
2023/09/09 06:16:30;;;;;;;8.73;6.20;;;;;;;;;;5016452;28;20060;-66
2023/09/09 06:18:55;;;;;;;7.15;6.53;;;;;;;;;;5015855;28;20539;-66
2023/09/09 06:21:21;;;;;;;7.88;7.03;;;;;;;;;;5016043;28;20713;-66
2023/09/09 06:23:47;;;;;;;8.07;7.07;;;;;;;;;;5016501;28;20043;-65
2023/09/09 06:26:12;;;;;;;11.07;6.32;;;;;;;;;;5015983;28;20037;-66
2023/09/09 06:28:38;;;;;;;8.82;7.50;;;;;;;;;;5016169;28;20034;-66
2023/09/09 06:31:03;;;;;;;12.57;8.48;;;;;;;;;;5015739;28;20025;-66
2023/09/09 06:33:29;;;;;;;11.38;8.07;;;;;;;;;;5015143;28;20048;-65
2023/09/09 06:35:55;;;;;;;11.43;8.18;;;;;;;;;;5033813;28;20112;-65
2023/09/09 06:38:22;;;;;;;11.13;7.63;;;;;;;;;;5015997;28;20048;-66
2023/09/09 06:40:48;;;;;;;10.00;6.35;;;;;;;;;;4999305;28;20522;-66
2023/09/09 06:43:17;;;;;;;10.52;8.02;;;;;;;;;;5033781;28;20101;-66
2023/09/09 06:45:42;;;;;;;9.95;6.57;;;;;;;;;;5015699;28;20013;-66
2023/09/09 06:48:08;;;;;;;8.32;7.05;;;;;;;;;;5033572;28;20366;-66
2023/09/09 06:50:33;;;;;;;7.90;6.65;;;;;;;;;;5033850;28;20413;-65
2023/09/09 06:52:58;;;;;;;11.70;7.95;;;;;;;;;;5033666;28;20038;-65
2023/09/09 06:55:24;;;;;;;9.32;7.72;;;;;;;;;;4999468;28;20021;-65
2023/09/09 06:57:49;;;;;;;9.90;7.97;;;;;;;;;;5032652;28;20053;-60
2023/09/09 07:00:15;;;;;;;11.85;7.80;;;;;;;;;;5032890;28;20033;-61
2023/09/09 07:02:41;;;;;;;13.63;12.23;;;;;;;;;;5029881;28;20033;-60
2023/09/09 07:05:07;;;;;;;7.88;7.07;;;;;;;;;;4995133;28;20374;-60
2023/09/09 07:07:33;;;;;;;9.77;7.75;;;;;;;;;;4995408;28;20390;-61
2023/09/09 07:09:59;;;;;;;11.48;8.40;;;;;;;;;;5013279;28;20034;-61
2023/09/09 07:12:24;;;;;;;11.30;7.40;;;;;;;;;;5013078;28;20041;-61
2023/09/09 07:14:49;;;;;;;15.80;7.97;;;;;;;;;;5012597;28;20021;-60
2023/09/09 07:17:17;;;;;;;8.13;7.28;;;;;;;;;;5012899;28;20038;-60
2023/09/09 07:19:42;;;;;;;7.65;5.97;;;;;;;;;;5012740;28;20030;-60
2023/09/09 07:22:08;;;;;;;10.95;6.70;;;;;;;;;;4995511;28;20049;-60
2023/09/09 07:24:33;;;;;;;7.97;5.82;;;;;;;;;;4995182;28;20041;-60
2023/09/09 07:27:00;;;;;;;6.82;6.00;;;;;;;;;;5012743;28;20025;-60
2023/09/09 07:29:26;;;;;;;9.45;6.55;;;;;;;;;;5013407;28;20030;-60
2023/09/09 07:31:51;;;;;;;11.00;7.22;;;;;;;;;;5013275;28;20033;-62
2023/09/09 07:34:17;;;;;;;9.27;6.45;;;;;;;;;;5012754;28;20037;-60
2023/09/09 07:36:42;;;;;;;9.38;7.05;;;;;;;;;;5012460;28;20025;-60
2023/09/09 07:39:07;;;;;;;7.88;6.93;;;;;;;;;;4978771;28;20450;-60
2023/09/09 07:41:33;;;;;;;7.30;6.10;;;;;;;;;;4984701;28;20038;-60
2023/09/09 07:43:58;;;;;;;9.63;5.82;;;;;;;;;;5011967;28;20112;-60
2023/09/09 07:46:23;;;;;;;6.57;5.68;;;;;;;;;;5011734;28;20040;-59
2023/09/09 07:48:49;;;;;;;7.10;5.75;;;;;;;;;;5012659;28;20117;-60
2023/09/09 07:51:14;;;;;;;9.77;7.03;;;;;;;;;;5012560;28;20113;-60
2023/09/09 07:53:41;;;;;;;9.13;6.55;;;;;;;;;;5012487;28;20065;-60
2023/09/09 07:56:06;;;;;;;7.15;6.40;;;;;;;;;;5012163;28;20030;-60
2023/09/09 07:58:31;;;;;;;8.60;6.57;;;;;;;;;;5012137;28;20112;-60
2023/09/09 08:01:03;;;;;;;6.95;6.10;;;;;;;;;;5012211;28;20030;-60
2023/09/09 08:03:29;;;;;;;6.68;6.03;;;;;;;;;;5012572;28;20065;-60
2023/09/09 08:06:02;;;;;;;5.68;5.00;;;;;;;;;;5012212;28;20057;-60
2023/09/09 08:08:28;;;;;;;6.90;6.20;;;;;;;;;;5012228;28;20065;-60
2023/09/09 08:10:53;;;;;;;8.02;5.38;;;;;;;;;;5012227;28;20073;-60
2023/09/09 08:13:18;;;;;;;7.25;6.13;;;;;;;;;;5009934;28;20028;-60
2023/09/09 08:15:45;;;;;;;7.20;5.97;;;;;;;;;;5011702;28;20442;-60
2023/09/09 08:18:11;;;;;;;6.75;5.68;;;;;;;;;;4995029;28;20037;-60
2023/09/09 08:20:36;;;;;;;9.90;5.38;;;;;;;;;;5011959;28;20073;-60
2023/09/09 08:23:02;;;;;;;6.25;5.75;;;;;;;;;;5012424;28;20038;-60
2023/09/09 08:25:32;;;;;;;4.50;4.15;;;;;;;;;;5012570;28;20044;-60
2023/09/09 08:28:03;;;;;;;5.43;4.88;;;;;;;;;;5028478;28;20053;-60
2023/09/09 08:30:29;;;;;;;5.90;5.18;;;;;;;;;;5032256;28;20033;-60
2023/09/09 08:32:54;;;;;;;6.03;5.10;;;;;;;;;;5017812;28;20492;-60
2023/09/09 08:35:22;;;;;;;6.80;5.00;;;;;;;;;;5024073;28;20112;-60
2023/09/09 08:37:47;;;;;;;6.07;5.10;;;;;;;;;;5011203;28;20037;-60
2023/09/09 08:40:13;;;;;;;5.22;4.55;;;;;;;;;;5011567;28;20048;-60
2023/09/09 08:42:48;;;;;;;6.22;5.10;;;;;;;;;;4997051;28;20121;-60
2023/09/09 08:45:26;;;;;;;6.50;4.80;;;;;;;;;;5014024;28;20115;-60
2023/09/09 08:47:54;;;;;;;5.00;4.50;;;;;;;;;;5032112;28;20042;-60
2023/09/09 08:50:20;;;;;;;7.28;4.70;;;;;;;;;;5031037;28;20036;-60
2023/09/09 08:52:48;;;;;;;5.95;5.32;;;;;;;;;;5028261;28;20064;-60
2023/09/09 08:55:15;;;;;;;6.07;5.20;;;;;;;;;;4994723;28;20106;-60
2023/09/09 08:57:43;;;;;;;6.18;5.30;;;;;;;;;;5011698;28;20721;-60
2023/09/09 09:00:10;;;;;;;4.40;4.00;;;;;;;;;;5011173;28;20030;-60
2023/09/09 09:02:35;;;;;;;6.40;5.15;;;;;;;;;;4997924;28;20079;-68
2023/09/09 09:05:03;;;;;;;7.50;4.80;;;;;;;;;;5026665;28;20095;-68
2023/09/09 09:07:29;;;;;;;5.32;4.82;;;;;;;;;;5019351;28;20030;-67
2023/09/09 09:09:55;;;;;;;5.65;5.13;;;;;;;;;;5029577;28;20033;-67
2023/09/09 09:12:21;;;;;;;6.15;5.55;;;;;;;;;;5014041;28;20417;-68
2023/09/09 09:14:46;;;;;;;7.22;5.47;;;;;;;;;;5011424;28;20026;-68
2023/09/09 09:17:14;;;;;;;7.10;5.53;;;;;;;;;;5010700;28;20048;-68
2023/09/09 09:19:39;;;;;;;9.02;5.78;;;;;;;;;;5017931;28;20490;-68
2023/09/09 09:22:04;;;;;;;7.90;5.47;;;;;;;;;;5025865;28;20068;-68
2023/09/09 09:24:39;;;;;;;5.68;4.88;;;;;;;;;;4998497;28;20143;-68
2023/09/09 09:27:08;;;;;;;6.53;5.57;;;;;;;;;;5013738;28;20026;-68
2023/09/09 09:29:38;;;;;;;8.23;5.80;;;;;;;;;;5009480;28;20061;-68
2023/09/09 09:32:04;;;;;;;7.82;5.88;;;;;;;;;;4991920;28;20041;-71
2023/09/09 09:34:33;;;;;;;7.32;6.63;;;;;;;;;;5009982;28;20034;-70
2023/09/09 09:37:02;;;;;;;6.90;6.20;;;;;;;;;;5010486;28;20109;-69
2023/09/09 09:39:36;;;;;;;6.07;5.57;;;;;;;;;;4993020;28;20028;-70
2023/09/09 09:42:02;;;;;;;9.80;5.65;;;;;;;;;;5011183;28;20435;-66
2023/09/09 09:44:27;;;;;;;5.78;5.20;;;;;;;;;;5011074;28;20112;-71
2023/09/09 09:47:00;;;;;;;7.35;5.60;;;;;;;;;;5010727;28;20064;-71
2023/09/09 09:49:33;;;;;;;9.00;5.70;;;;;;;;;;5010781;28;20034;-71
2023/09/09 09:51:58;;;;;;;7.35;6.45;;;;;;;;;;5010678;28;20042;-71
2023/09/09 09:54:24;;;;;;;6.32;5.03;;;;;;;;;;5010899;28;20037;-71
2023/09/09 09:56:51;;;;;;;2.67;2.50;;;;;;;;;;5010582;28;20033;-71
2023/09/09 09:59:17;;;;;;;5.65;4.72;;;;;;;;;;5010086;28;20050;-67
2023/09/09 10:01:42;;;;;;;5.40;4.57;;;;;;;;;;5009743;28;20160;-67
2023/09/09 10:04:09;;;;;;;6.50;5.22;;;;;;;;;;5009821;28;20120;-67
2023/09/09 10:06:37;;;;;;;7.65;5.55;;;;;;;;;;5009688;28;20084;-70
2023/09/09 10:09:08;;;;;;;5.38;4.68;;;;;;;;;;4992253;28;20496;-65
2023/09/09 10:11:38;;;;;;;5.03;4.50;;;;;;;;;;5009572;28;20034;-65
2023/09/09 10:14:04;;;;;;;6.68;5.38;;;;;;;;;;5009220;28;20048;-65
2023/09/09 10:16:30;;;;;;;7.15;5.90;;;;;;;;;;5009887;28;20469;-65
2023/09/09 10:18:57;;;;;;;4.85;4.45;;;;;;;;;;5009403;28;20041;-65
2023/09/09 10:21:22;;;;;;;5.32;4.85;;;;;;;;;;5009223;28;20591;-66
2023/09/09 10:23:48;;;;;;;6.13;4.60;;;;;;;;;;5009529;28;20034;-65
2023/09/09 10:26:14;;;;;;;6.13;5.53;;;;;;;;;;5009319;28;20022;-65
2023/09/09 10:28:40;;;;;;;5.45;4.93;;;;;;;;;;4991643;28;20042;-65
2023/09/09 10:31:07;;;;;;;5.68;4.80;;;;;;;;;;5010549;28;20482;-66
2023/09/09 10:33:33;;;;;;;5.60;5.10;;;;;;;;;;5027762;28;20117;-65
2023/09/09 10:36:07;;;;;;;8.20;5.55;;;;;;;;;;5025944;28;20117;-66
2023/09/09 10:38:33;;;;;;;7.22;5.15;;;;;;;;;;5011558;28;20034;-66
2023/09/09 10:40:58;;;;;;;5.85;5.22;;;;;;;;;;5013634;28;20450;-66
2023/09/09 10:43:24;;;;;;;6.65;4.63;;;;;;;;;;5013565;28;20076;-65
2023/09/09 10:45:50;;;;;;;6.07;5.30;;;;;;;;;;5014365;28;20038;-67
2023/09/09 10:48:20;;;;;;;6.28;5.50;;;;;;;;;;5013289;28;20030;-66
2023/09/09 10:50:47;;;;;;;6.88;5.55;;;;;;;;;;5013930;28;20038;-65
2023/09/09 10:53:13;;;;;;;16.83;6.78;;;;;;;;;;5013934;28;20458;-65
2023/09/09 10:55:38;;;;;;;5.88;5.28;;;;;;;;;;5013615;28;20699;-66
2023/09/09 10:58:07;;;;;;;6.75;6.05;;;;;;;;;;5013456;28;20054;-66
2023/09/09 11:00:39;;;;;;;6.82;5.93;;;;;;;;;;5022688;28;20018;-66
2023/09/09 11:03:09;;;;;;;7.07;6.13;;;;;;;;;;5034013;28;20057;-65
2023/09/09 11:05:54;;;;;;;9.23;6.20;;;;;;;;;;5016258;28;20489;-66
2023/09/09 11:08:28;;;;;;;8.88;5.80;;;;;;;;;;5015258;28;20114;-65
2023/09/09 11:11:05;;;;;;;7.43;6.82;;;;;;;;;;5015387;28;20095;-65
2023/09/09 11:13:50;;;;;;;5.30;4.57;;;;;;;;;;5033464;28;20539;-65
2023/09/09 11:16:26;;;;;;;7.95;5.47;;;;;;;;;;5033294;28;20458;-66
2023/09/09 11:18:52;;;;;;;9.77;6.55;;;;;;;;;;5016426;28;20029;-66
2023/09/09 11:21:24;;;;;;;5.80;5.28;;;;;;;;;;5012584;28;20022;-66
2023/09/09 11:23:53;;;;;;;5.85;5.15;;;;;;;;;;4995582;28;20032;-69
2023/09/09 11:26:18;;;;;;;8.00;5.53;;;;;;;;;;5017098;28;20052;-72
2023/09/09 11:28:44;;;;;;;6.28;4.88;;;;;;;;;;5032750;28;20477;-71
2023/09/09 11:31:14;;;;;;;6.43;5.82;;;;;;;;;;5031665;28;20477;-71
2023/09/09 11:33:40;;;;;;;11.00;5.97;;;;;;;;;;5030534;28;20581;-71
2023/09/09 11:36:06;;;;;;;7.65;6.25;;;;;;;;;;5031927;28;20414;-71
2023/09/09 11:38:38;;;;;;;6.55;5.60;;;;;;;;;;5013720;28;20025;-72
2023/09/09 11:41:04;;;;;;;8.43;6.25;;;;;;;;;;5031143;28;20083;-72
2023/09/09 11:43:29;;;;;;;6.30;5.70;;;;;;;;;;5030132;28;20044;-70
2023/09/09 11:45:56;;;;;;;7.88;5.60;;;;;;;;;;5030358;28;20029;-71
2023/09/09 11:48:22;;;;;;;10.57;6.05;;;;;;;;;;5029815;28;20061;-72
2023/09/09 11:50:48;;;;;;;8.15;5.95;;;;;;;;;;5030035;28;20033;-70
2023/09/09 11:53:13;;;;;;;6.38;4.70;;;;;;;;;;5031132;28;20071;-71
2023/09/09 11:55:39;;;;;;;9.68;6.47;;;;;;;;;;5030957;28;20469;-71
2023/09/09 11:58:05;;;;;;;6.82;6.20;;;;;;;;;;5030898;28;20047;-71
2023/09/09 12:00:30;;;;;;;6.85;6.15;;;;;;;;;;5031154;28;20022;-71
2023/09/09 12:02:56;;;;;;;7.70;5.97;;;;;;;;;;4996120;28;20040;-71
2023/09/09 12:05:27;;;;;;;6.13;5.53;;;;;;;;;;5030496;28;20033;-70
2023/09/09 12:07:52;;;;;;;6.00;5.20;;;;;;;;;;5012578;28;20044;-71
2023/09/09 12:10:18;;;;;;;8.05;5.65;;;;;;;;;;5030159;28;20022;-71
2023/09/09 12:12:45;;;;;;;19.52;11.80;;;;;;;;;;5030399;28;20034;-71
2023/09/09 12:15:12;;;;;;;11.80;7.80;;;;;;;;;;5030126;28;20030;-71
2023/09/09 12:17:37;;;;;;;8.35;7.30;;;;;;;;;;5029890;28;20029;-71
2023/09/09 12:20:09;;;;;;;9.05;7.13;;;;;;;;;;5030010;28;20527;-71
2023/09/09 12:22:36;;;;;;;8.13;6.90;;;;;;;;;;5029991;28;20403;-71
2023/09/09 12:25:05;;;;;;;7.88;7.03;;;;;;;;;;5029687;28;20131;-71
2023/09/09 12:27:43;;;;;;;8.35;7.35;;;;;;;;;;5029739;28;20578;-71
2023/09/09 12:30:28;;;;;;;12.43;8.02;;;;;;;;;;5011339;28;20038;-71
2023/09/09 12:32:54;;;;;;;13.85;9.77;;;;;;;;;;5029445;28;20037;-71
2023/09/09 12:35:19;;;;;;;9.68;8.68;;;;;;;;;;5029499;28;20483;-71
2023/09/09 12:37:45;;;;;;;8.10;7.28;;;;;;;;;;5029653;28;20029;-71
2023/09/09 12:40:10;;;;;;;9.27;8.07;;;;;;;;;;4994490;28;20029;-71
2023/09/09 12:42:36;;;;;;;9.57;8.35;;;;;;;;;;5029707;28;20044;-71
2023/09/09 12:45:09;;;;;;;11.02;8.32;;;;;;;;;;5029417;28;20025;-71
2023/09/09 12:47:34;;;;;;;10.48;8.20;;;;;;;;;;5011244;28;20076;-71
2023/09/09 12:49:59;;;;;;;10.45;8.02;;;;;;;;;;5029500;28;20057;-71
2023/09/09 12:52:30;;;;;;;14.77;9.25;;;;;;;;;;5029340;28;20122;-71
2023/09/09 12:54:55;;;;;;;12.45;8.27;;;;;;;;;;5029251;28;20440;-71
2023/09/09 12:57:21;;;;;;;9.88;7.82;;;;;;;;;;5029014;28;20045;-71
2023/09/09 12:59:46;;;;;;;11.32;8.18;;;;;;;;;;5011388;28;20033;-71
2023/09/09 13:02:12;;;;;;;10.55;8.45;;;;;;;;;;5010407;28;20044;-71
2023/09/09 13:04:37;;;;;;;11.48;9.02;;;;;;;;;;5028745;28;20445;-71
2023/09/09 13:07:02;;;;;;;10.05;8.10;;;;;;;;;;5028786;28;20431;-70
2023/09/09 13:09:28;;;;;;;10.02;7.03;;;;;;;;;;5028889;28;20525;-71
2023/09/09 13:11:53;;;;;;;8.65;7.50;;;;;;;;;;5028942;28;20033;-71
2023/09/09 13:14:19;;;;;;;9.38;7.40;;;;;;;;;;5011569;28;20568;-67
2023/09/09 13:16:45;;;;;;;15.90;7.25;;;;;;;;;;5028790;28;20026;-68
2023/09/09 13:19:10;;;;;;;13.40;7.20;;;;;;;;;;5028844;28;20039;-67
2023/09/09 13:21:35;;;;;;;10.80;8.05;;;;;;;;;;5028578;28;20033;-67
2023/09/09 13:24:01;;;;;;;10.93;7.18;;;;;;;;;;5029168;28;20053;-67
2023/09/09 13:26:26;;;;;;;14.75;10.13;;;;;;;;;;5028619;28;20481;-67
2023/09/09 13:28:51;;;;;;;9.52;8.32;;;;;;;;;;5028855;28;20040;-67
2023/09/09 13:31:17;;;;;;;7.72;6.95;;;;;;;;;;5010856;28;20022;-66
2023/09/09 13:33:42;;;;;;;7.25;6.55;;;;;;;;;;5028781;28;20033;-67
2023/09/09 13:36:07;;;;;;;7.25;6.65;;;;;;;;;;5028310;28;20023;-67
2023/09/09 13:38:33;;;;;;;8.88;6.07;;;;;;;;;;5010185;28;20048;-67
2023/09/09 13:40:58;;;;;;;9.45;7.10;;;;;;;;;;5030100;28;20026;-67
2023/09/09 13:43:23;;;;;;;7.50;6.25;;;;;;;;;;5030772;28;20465;-68
2023/09/09 13:45:53;;;;;;;8.77;7.07;;;;;;;;;;5030454;28;20037;-68
2023/09/09 13:48:18;;;;;;;10.00;7.55;;;;;;;;;;5002367;28;20109;-68
2023/09/09 13:50:44;;;;;;;8.45;6.68;;;;;;;;;;5010612;28;20688;-68
2023/09/09 13:53:09;;;;;;;10.27;7.35;;;;;;;;;;4992797;28;20497;-67
2023/09/09 13:55:34;;;;;;;7.80;6.70;;;;;;;;;;5012093;28;20030;-68
2023/09/09 13:58:00;;;;;;;8.43;7.05;;;;;;;;;;5030285;28;20150;-67
2023/09/09 14:00:25;;;;;;;8.43;7.07;;;;;;;;;;5030521;28;20032;-67
2023/09/09 14:02:51;;;;;;;7.97;6.70;;;;;;;;;;5030207;28;20018;-68
2023/09/09 14:05:16;;;;;;;6.47;5.88;;;;;;;;;;5030575;28;20103;-68
2023/09/09 14:07:41;;;;;;;8.25;5.90;;;;;;;;;;5010553;28;20512;-68
2023/09/09 14:10:07;;;;;;;7.95;6.18;;;;;;;;;;5009476;28;20058;-68
2023/09/09 14:12:32;;;;;;;7.43;6.68;;;;;;;;;;5010727;28;20026;-67
2023/09/09 14:14:58;;;;;;;8.20;6.70;;;;;;;;;;4996391;28;20557;-67
2023/09/09 14:17:26;;;;;;;8.07;6.85;;;;;;;;;;5030817;28;20033;-69
2023/09/09 14:19:52;;;;;;;13.65;7.60;;;;;;;;;;5032874;28;20033;-67
2023/09/09 14:22:17;;;;;;;8.70;6.57;;;;;;;;;;5014328;28;20079;-66
2023/09/09 14:24:42;;;;;;;6.80;5.93;;;;;;;;;;5032257;28;20029;-66
2023/09/09 14:27:08;;;;;;;9.50;6.30;;;;;;;;;;5032723;28;20037;-67
2023/09/09 14:29:33;;;;;;;9.93;7.53;;;;;;;;;;5032072;28;20444;-66
2023/09/09 14:32:00;;;;;;;12.73;8.48;;;;;;;;;;5032386;28;20041;-66
2023/09/09 14:34:26;;;;;;;14.35;9.57;;;;;;;;;;5015277;28;20025;-67
2023/09/09 14:36:51;;;;;;;10.63;7.13;;;;;;;;;;5032687;28;20037;-67